CYRV

Revelstoke Airport

Revelstoke, British Columbia, Canada
METAR CYRV 171200Z AUTO VRB02KT 8SM RA OVC008 01/01 A2987 RMK PCPN 0.5MM PAST HR SLP133
Observed Flight Rules
Dec-17 @ 12:00 UTC (16 minutes ago) Instrument Flight Rules
Wind Visibility Clouds Conditions
Variable at 2 knots 8 miles
  • Overcast at 800' AGL
  • Rain
Temperatures Readings
Current 1°C / 34°F
Dewpoint 1°C / 34°F
Humidity 100%
Altimeter 29.87" Hg
Pressure 1013.3 hPa
Elevation 443
METAR CYRV 171200Z AUTO VRB02KT 8SM RA OVC008 01/01 A2987 RMK PCPN 0.5MM PAST HR SLP133
Observed Flight Rules
Dec-17 @ 12:00 UTC
(16 minutes ago)
IFR
Wind Visibility
Variable at 2 knots 8 miles
Clouds
  • Overcast at 800' AGL
Conditions
  • Rain
Temperature Dewpoint
1°C / 34°F 1°C / 34°F
Humidity Altimeter Pressure
100% 29.87" Hg 1013.3 hPa